createdAt,value
2018-03-14T00:00:18.322Z,10.20
2018-03-14T00:01:18.329Z,10.30
2018-03-14T00:02:18.334Z,10.00
2018-03-14T00:03:18.331Z,10.40
2018-03-14T00:04:18.366Z,10.20
2018-03-14T00:05:18.351Z,10.30
2018-03-14T00:06:18.358Z,10.50
2018-03-14T00:07:18.361Z,9.80
2018-03-14T00:08:18.369Z,10.30
2018-03-14T00:09:18.374Z,10.30
2018-03-14T00:10:18.383Z,9.90
2018-03-14T00:11:18.387Z,9.80
2018-03-14T00:12:18.384Z,9.20
2018-03-14T00:13:18.386Z,9.00
2018-03-14T00:14:18.401Z,9.00
2018-03-14T00:15:18.394Z,8.60
2018-03-14T00:16:18.398Z,8.80
2018-03-14T00:17:18.399Z,8.00
2018-03-14T00:18:18.411Z,7.90
2018-03-14T00:19:18.454Z,8.00
2018-03-14T00:20:18.424Z,7.50
2018-03-14T00:21:18.431Z,7.70
2018-03-14T00:22:18.438Z,7.90
2018-03-14T00:23:18.438Z,8.20
2018-03-14T00:24:18.452Z,7.80
2018-03-14T00:25:18.488Z,7.40
2018-03-14T00:26:19.461Z,7.60
2018-03-14T00:27:18.451Z,7.40
2018-03-14T00:28:18.464Z,7.60
2018-03-14T00:29:18.525Z,7.50
2018-03-14T00:30:18.474Z,7.60
2018-03-14T00:31:18.577Z,7.30
2018-03-14T00:32:18.479Z,6.50
2018-03-14T00:33:18.482Z,6.90
2018-03-14T00:34:18.494Z,6.60
2018-03-14T00:35:18.531Z,6.30
2018-03-14T00:36:18.507Z,6.60
2018-03-14T00:37:18.505Z,6.40
2018-03-14T00:38:18.508Z,6.10
2018-03-14T00:39:18.517Z,6.30
2018-03-14T00:40:18.528Z,6.30
2018-03-14T00:41:18.522Z,6.10
2018-03-14T00:42:18.534Z,6.40
2018-03-14T00:43:18.526Z,6.40
2018-03-14T00:44:18.533Z,6.20
2018-03-14T00:45:18.560Z,6.20
2018-03-14T00:46:18.549Z,5.80
2018-03-14T00:47:18.549Z,5.80
2018-03-14T00:48:18.583Z,5.90
2018-03-14T00:49:18.558Z,6.10
2018-03-14T00:50:18.566Z,6.00
2018-03-14T00:51:18.574Z,5.70
2018-03-14T00:52:18.579Z,6.00
2018-03-14T00:53:18.582Z,6.00
2018-03-14T00:54:18.589Z,6.20
2018-03-14T00:55:18.587Z,6.50
2018-03-14T00:56:18.611Z,5.90
2018-03-14T00:57:18.605Z,5.90
2018-03-14T00:58:18.608Z,6.10
2018-03-14T00:59:18.610Z,6.10
2018-03-14T01:00:18.618Z,6.20
2018-03-14T01:01:18.635Z,6.00
2018-03-14T01:02:18.628Z,6.60
2018-03-14T01:03:18.655Z,6.40
2018-03-14T01:04:18.653Z,6.20
2018-03-14T01:05:18.638Z,5.90
2018-03-14T01:06:18.646Z,6.10
2018-03-14T01:07:18.654Z,6.10
2018-03-14T01:08:18.664Z,6.60
2018-03-14T01:09:18.671Z,6.60
2018-03-14T01:10:18.683Z,7.10
2018-03-14T01:11:18.670Z,7.00
2018-03-14T01:12:18.686Z,7.10
2018-03-14T01:13:18.680Z,7.20
2018-03-14T01:14:18.688Z,7.50
2018-03-14T01:15:18.691Z,7.20
2018-03-14T01:16:18.714Z,8.10
2018-03-14T01:17:18.693Z,7.00
2018-03-14T01:18:18.719Z,7.50
2018-03-14T01:19:18.704Z,7.40
2018-03-14T01:20:18.728Z,7.40
2018-03-14T01:21:18.755Z,7.50
2018-03-14T01:22:18.741Z,7.70
2018-03-14T01:23:18.720Z,7.50
2018-03-14T01:24:18.739Z,7.40
2018-03-14T01:25:18.745Z,7.70
2018-03-14T01:26:18.742Z,7.20
2018-03-14T01:27:18.746Z,7.50
2018-03-14T01:28:18.750Z,8.10
2018-03-14T01:29:18.754Z,7.90
2018-03-14T01:30:18.781Z,7.80
2018-03-14T01:31:18.769Z,7.70
2018-03-14T01:32:18.773Z,7.60
2018-03-14T01:33:18.775Z,8.30
2018-03-14T01:34:18.787Z,7.40
2018-03-14T01:35:18.779Z,7.70
2018-03-14T01:36:18.790Z,7.80
2018-03-14T01:37:18.788Z,7.70
2018-03-14T01:38:18.798Z,8.20
2018-03-14T01:39:18.801Z,7.70
2018-03-14T01:40:18.806Z,8.00
2018-03-14T01:41:18.813Z,8.60
2018-03-14T01:42:18.820Z,7.80
2018-03-14T01:43:18.827Z,8.90
2018-03-14T01:44:18.861Z,8.30
2018-03-14T01:45:18.828Z,8.50
2018-03-14T01:46:18.839Z,7.90
2018-03-14T01:47:18.840Z,8.60
2018-03-14T01:48:18.849Z,8.20
2018-03-14T01:49:18.847Z,8.50
2018-03-14T01:50:18.855Z,8.90
2018-03-14T01:51:18.860Z,8.70
2018-03-14T01:52:18.866Z,8.70
2018-03-14T01:53:18.871Z,9.10
2018-03-14T01:54:18.877Z,8.70
2018-03-14T01:55:18.889Z,9.00
2018-03-14T01:56:18.889Z,9.00
2018-03-14T01:57:18.886Z,8.60
2018-03-14T01:58:18.905Z,9.30
2018-03-14T01:59:18.903Z,9.70
2018-03-14T02:00:18.903Z,9.30
2018-03-14T02:01:18.904Z,9.50
2018-03-14T02:02:18.924Z,9.80
2018-03-14T02:03:18.916Z,10.70
2018-03-14T02:04:18.922Z,10.10
2018-03-14T02:05:18.924Z,9.90
2018-03-14T02:06:18.936Z,11.00
2018-03-14T02:07:18.945Z,10.70
2018-03-14T02:08:18.937Z,10.40
2018-03-14T02:09:18.944Z,10.90
2018-03-14T02:10:18.953Z,10.10
2018-03-14T02:11:18.958Z,10.40
2018-03-14T02:12:18.959Z,10.40
2018-03-14T02:13:18.960Z,10.30
2018-03-14T02:14:18.977Z,10.30
2018-03-14T02:15:19.064Z,10.30
2018-03-14T02:16:19.014Z,10.40
2018-03-14T02:17:18.982Z,10.10
2018-03-14T02:18:18.989Z,9.70
2018-03-14T02:19:19.023Z,10.10
2018-03-14T02:20:19.001Z,10.10
2018-03-14T02:21:18.999Z,10.00
2018-03-14T02:22:19.008Z,9.70
2018-03-14T02:23:19.008Z,9.20
2018-03-14T02:24:19.013Z,9.60
2018-03-14T02:25:19.018Z,8.90
2018-03-14T02:26:19.038Z,9.60
2018-03-14T02:27:19.029Z,8.50
2018-03-14T02:28:19.036Z,9.00
2018-03-14T02:29:19.039Z,8.30
2018-03-14T02:30:19.115Z,8.30
2018-03-14T02:31:19.044Z,9.20
2018-03-14T02:32:19.057Z,8.50
2018-03-14T02:33:19.057Z,7.80
2018-03-14T02:34:19.068Z,8.10
2018-03-14T02:35:19.063Z,7.90
2018-03-14T02:36:19.088Z,8.10
2018-03-14T02:37:19.094Z,7.90
2018-03-14T02:38:19.094Z,7.70
2018-03-14T02:39:19.100Z,8.00
2018-03-14T02:40:19.095Z,7.40
2018-03-14T02:41:19.100Z,7.80
2018-03-14T02:42:19.108Z,7.90
2018-03-14T02:43:19.100Z,8.10
2018-03-14T02:44:19.112Z,7.80
2018-03-14T02:45:19.112Z,7.80
2018-03-14T02:46:19.119Z,8.60
2018-03-14T02:47:19.116Z,8.00
2018-03-14T02:48:19.148Z,8.40
2018-03-14T02:49:19.129Z,7.90
2018-03-14T02:50:19.138Z,7.80
2018-03-14T02:51:19.142Z,8.40
2018-03-14T02:52:19.147Z,8.20
2018-03-14T02:53:19.151Z,8.00
2018-03-14T02:54:19.154Z,8.20
2018-03-14T02:55:19.194Z,9.00
2018-03-14T02:56:19.179Z,8.60
2018-03-14T02:57:19.169Z,8.00
2018-03-14T02:58:19.172Z,7.90
2018-03-14T02:59:19.171Z,8.00
2018-03-14T03:00:19.180Z,8.20
2018-03-14T03:01:19.183Z,7.90
2018-03-14T03:02:19.190Z,7.60
2018-03-14T03:03:19.202Z,8.40
2018-03-14T03:04:19.212Z,7.60
2018-03-14T03:05:19.199Z,8.90
2018-03-14T03:06:19.209Z,8.50
2018-03-14T03:07:19.213Z,8.00
2018-03-14T03:08:19.232Z,8.40
2018-03-14T03:09:19.224Z,8.10
2018-03-14T03:10:19.237Z,8.30
2018-03-14T03:11:19.230Z,8.30
2018-03-14T03:12:19.243Z,8.80
2018-03-14T03:13:19.240Z,9.00
2018-03-14T03:14:19.260Z,8.40
2018-03-14T03:15:19.247Z,9.20
2018-03-14T03:16:19.255Z,8.90
2018-03-14T03:17:19.257Z,9.20
2018-03-14T03:18:19.269Z,8.60
2018-03-14T03:19:19.269Z,9.40
2018-03-14T03:20:19.274Z,8.90
2018-03-14T03:21:19.273Z,9.50
2018-03-14T03:22:19.293Z,9.70
2018-03-14T03:23:19.294Z,9.10
2018-03-14T03:24:19.308Z,9.30
2018-03-14T03:25:19.300Z,9.00
2018-03-14T03:26:19.316Z,8.60
2018-03-14T03:27:19.308Z,9.60
2018-03-14T03:28:19.312Z,9.10
2018-03-14T03:29:19.313Z,8.90
2018-03-14T03:30:19.319Z,9.50
2018-03-14T03:31:19.385Z,8.60
2018-03-14T03:32:19.324Z,8.80
2018-03-14T03:33:19.329Z,8.90
2018-03-14T03:34:19.335Z,8.80
2018-03-14T03:35:19.360Z,8.80
2018-03-14T03:36:19.349Z,9.00
2018-03-14T03:37:19.362Z,9.30
2018-03-14T03:38:19.381Z,8.60
2018-03-14T03:39:19.358Z,9.30
2018-03-14T03:40:19.366Z,8.90
2018-03-14T03:41:19.366Z,8.70
2018-03-14T03:42:19.376Z,8.80
2018-03-14T03:43:19.383Z,9.00
2018-03-14T03:44:19.381Z,9.00
2018-03-14T03:45:19.389Z,9.00
2018-03-14T03:46:19.393Z,9.70
2018-03-14T03:47:19.395Z,9.40
2018-03-14T03:48:19.407Z,9.40
2018-03-14T03:49:19.402Z,9.50
2018-03-14T03:50:19.414Z,9.40
2018-03-14T03:51:19.408Z,9.40
2018-03-14T03:52:19.437Z,9.60
2018-03-14T03:53:19.423Z,9.80
2018-03-14T03:54:19.426Z,9.10
2018-03-14T03:55:19.430Z,9.00
2018-03-14T03:56:19.458Z,9.40
2018-03-14T03:57:19.439Z,10.00
2018-03-14T03:58:19.450Z,9.50
2018-03-14T03:59:19.448Z,9.50
2018-03-14T04:00:19.469Z,9.70
2018-03-14T04:01:19.457Z,9.70
2018-03-14T04:02:19.467Z,9.60
2018-03-14T04:03:19.470Z,10.00
2018-03-14T04:04:19.479Z,9.70
2018-03-14T04:05:19.481Z,9.90
2018-03-14T04:06:19.506Z,9.70
2018-03-14T04:07:19.488Z,9.30
2018-03-14T04:08:19.499Z,10.00
2018-03-14T04:09:19.490Z,9.70
2018-03-14T04:10:19.510Z,10.20
2018-03-14T04:11:19.513Z,9.80
2018-03-14T04:12:19.504Z,9.90
2018-03-14T04:13:19.506Z,10.20
2018-03-14T04:14:19.570Z,10.00
2018-03-14T04:15:19.517Z,9.40
2018-03-14T04:16:19.529Z,9.70
2018-03-14T04:17:19.523Z,9.50
2018-03-14T04:18:19.535Z,9.70
2018-03-14T04:19:19.545Z,9.50
2018-03-14T04:20:19.560Z,9.10
2018-03-14T04:21:19.580Z,9.30
2018-03-14T04:22:19.591Z,8.90
2018-03-14T04:23:19.553Z,8.70
2018-03-14T04:24:19.572Z,9.40
2018-03-14T04:25:19.565Z,9.00
2018-03-14T04:26:19.572Z,8.30
2018-03-14T04:27:19.574Z,8.30
2018-03-14T04:28:19.583Z,8.70
2018-03-14T04:29:19.577Z,8.40
2018-03-14T04:30:19.595Z,9.30
2018-03-14T04:31:19.590Z,8.40
2018-03-14T04:32:19.594Z,7.90
2018-03-14T04:33:19.600Z,7.80
2018-03-14T04:34:19.624Z,8.20
2018-03-14T04:35:19.606Z,8.50
2018-03-14T04:36:19.617Z,8.70
2018-03-14T04:37:19.618Z,8.50
2018-03-14T04:38:19.682Z,8.70
2018-03-14T04:39:19.628Z,8.90
2018-03-14T04:40:19.636Z,8.60
2018-03-14T04:41:19.632Z,8.40
2018-03-14T04:42:19.649Z,8.60
2018-03-14T04:43:19.644Z,8.20
2018-03-14T04:44:19.651Z,8.80
2018-03-14T04:45:19.650Z,8.40
2018-03-14T04:46:19.661Z,8.40
2018-03-14T04:47:19.662Z,8.00
2018-03-14T04:48:19.666Z,8.60
2018-03-14T04:49:19.671Z,9.00
2018-03-14T04:50:19.672Z,8.90
2018-03-14T04:51:19.712Z,8.20
2018-03-14T04:52:20.685Z,8.00
2018-03-14T04:53:19.693Z,8.30
2018-03-14T04:54:19.703Z,8.10
2018-03-14T04:55:19.693Z,8.20
2018-03-14T04:56:19.754Z,8.30
2018-03-14T04:57:19.702Z,7.70
2018-03-14T04:58:19.716Z,7.70
2018-03-14T04:59:19.713Z,7.70
2018-03-14T05:00:19.715Z,7.90
2018-03-14T05:01:19.718Z,7.60
2018-03-14T05:02:19.763Z,7.80
2018-03-14T05:03:19.735Z,7.80
2018-03-14T05:04:19.740Z,7.40
2018-03-14T05:05:19.747Z,7.40
2018-03-14T05:06:19.745Z,7.10
2018-03-14T05:07:19.749Z,6.70
2018-03-14T05:08:19.749Z,7.60
2018-03-14T05:09:19.756Z,7.30
2018-03-14T05:10:19.764Z,8.10
2018-03-14T05:11:19.771Z,7.60
2018-03-14T05:12:19.781Z,7.90
2018-03-14T05:13:19.783Z,7.30
2018-03-14T05:14:19.785Z,7.90
2018-03-14T05:15:19.789Z,7.90
2018-03-14T05:16:30.388Z,7.30
2018-03-14T05:17:19.849Z,7.80
2018-03-14T05:18:45.384Z,7.50
2018-03-14T05:19:19.810Z,7.60
2018-03-14T05:20:19.811Z,7.40
2018-03-14T05:21:19.809Z,7.30
2018-03-14T05:22:36.415Z,7.40
2018-03-14T05:23:19.819Z,7.60
2018-03-14T05:24:40.830Z,7.80
2018-03-14T05:25:19.829Z,7.90
2018-03-14T05:26:19.840Z,7.30
2018-03-14T05:27:19.833Z,6.70
2018-03-14T05:28:19.844Z,7.10
2018-03-14T05:29:19.856Z,7.70
2018-03-14T05:30:49.399Z,7.40
2018-03-14T05:31:19.890Z,6.90
2018-03-14T05:32:19.915Z,7.50
2018-03-14T05:33:19.861Z,6.90
2018-03-14T05:34:20.878Z,7.30
2018-03-14T05:35:19.867Z,7.60
2018-03-14T05:36:19.881Z,7.50
2018-03-14T05:37:19.881Z,7.90
2018-03-14T05:38:20.887Z,7.70
2018-03-14T05:39:19.899Z,7.50
2018-03-14T05:40:26.884Z,7.70
2018-03-14T05:41:19.897Z,7.70
2018-03-14T05:42:24.911Z,7.30
2018-03-14T05:43:19.910Z,7.40
2018-03-14T05:44:26.884Z,7.60
2018-03-14T05:45:19.920Z,8.10
2018-03-14T05:46:20.918Z,8.10
2018-03-14T05:47:19.947Z,7.60
2018-03-14T05:51:09.122Z,7.80
2018-03-14T05:52:00.422Z,7.80
2018-03-14T05:55:58.696Z,7.90
2018-03-14T05:57:19.642Z,8.50
2018-03-14T05:57:50.911Z,8.10
2018-03-14T05:59:28.644Z,7.90
2018-03-14T05:59:50.908Z,8.00
2018-03-14T06:00:50.996Z,8.10
2018-03-14T06:01:52.981Z,8.30
2018-03-14T06:02:50.926Z,7.80
2018-03-14T06:04:14.644Z,8.20
2018-03-14T06:04:50.942Z,8.20
2018-03-14T06:05:50.935Z,7.90
2018-03-14T06:06:50.944Z,8.20
2018-03-14T06:07:50.944Z,8.50
2018-03-14T06:08:50.947Z,8.40
2018-03-14T06:09:50.956Z,8.20
2018-03-14T06:10:50.960Z,7.90
2018-03-14T06:11:50.989Z,8.20
2018-03-14T06:12:50.970Z,8.30
2018-03-14T06:13:50.973Z,7.80
2018-03-14T06:14:50.984Z,7.80
2018-03-14T06:15:50.977Z,8.40
2018-03-14T06:16:50.985Z,8.20
2018-03-14T06:17:50.987Z,8.30
2018-03-14T06:18:51.020Z,8.40
2018-03-14T06:19:51.018Z,8.50
2018-03-14T06:20:51.004Z,8.90
2018-03-14T06:21:51.030Z,8.00
2018-03-14T06:22:51.009Z,8.10
2018-03-14T06:23:51.013Z,8.30
2018-03-14T06:24:51.043Z,8.20
2018-03-14T06:25:51.044Z,8.00
2018-03-14T06:26:51.034Z,8.20
2018-03-14T06:27:51.030Z,7.70
2018-03-14T06:28:51.047Z,8.10
2018-03-14T06:29:51.043Z,8.10
2018-03-14T06:30:51.048Z,8.00
2018-03-14T06:31:51.053Z,8.50
2018-03-14T06:32:51.056Z,8.30
2018-03-14T06:33:51.071Z,8.90
2018-03-14T06:34:51.078Z,9.10
2018-03-14T06:35:51.064Z,8.50
2018-03-14T06:36:51.078Z,8.60
2018-03-14T06:37:51.077Z,8.80
2018-03-14T06:38:51.089Z,8.30
2018-03-14T06:39:51.091Z,8.80
2018-03-14T06:40:51.093Z,8.20
2018-03-14T06:41:51.086Z,8.70
2018-03-14T06:42:51.096Z,8.90
2018-03-14T06:43:51.099Z,8.60
2018-03-14T06:44:51.105Z,8.80
2018-03-14T06:45:51.103Z,8.40
2018-03-14T06:46:51.119Z,9.20
2018-03-14T06:47:51.113Z,8.50
2018-03-14T06:48:51.123Z,9.10
2018-03-14T06:49:51.118Z,8.90
2018-03-14T06:50:51.131Z,8.80
2018-03-14T06:51:51.124Z,9.60
2018-03-14T06:52:51.134Z,9.50
2018-03-14T06:53:51.147Z,9.40
2018-03-14T06:54:51.143Z,9.90
2018-03-14T06:55:51.156Z,10.20
2018-03-14T06:56:51.160Z,10.60
2018-03-14T06:57:51.156Z,10.20
2018-03-14T06:58:51.171Z,10.70
2018-03-14T06:59:51.173Z,9.50
2018-03-14T07:00:51.176Z,9.30
2018-03-14T07:01:51.174Z,9.60
2018-03-14T07:02:51.200Z,9.60
2018-03-14T07:03:51.194Z,9.50
2018-03-14T07:04:51.204Z,9.30
2018-03-14T07:05:51.184Z,9.10
2018-03-14T07:06:51.214Z,9.30
2018-03-14T07:07:51.199Z,9.20
2018-03-14T07:08:51.220Z,9.00
2018-03-14T07:09:51.201Z,9.20
2018-03-14T07:10:53.230Z,9.00
2018-03-14T07:11:51.216Z,9.10
2018-03-14T07:12:51.227Z,9.50
2018-03-14T07:13:51.217Z,9.00
2018-03-14T07:14:51.250Z,9.90
2018-03-14T07:15:51.236Z,10.80
2018-03-14T07:16:51.259Z,9.60
2018-03-14T07:17:51.234Z,9.60
2018-03-14T07:18:51.242Z,10.40
2018-03-14T07:19:51.252Z,9.60
2018-03-14T07:20:51.258Z,9.50
2018-03-14T07:21:51.268Z,9.00
2018-03-14T07:22:51.279Z,9.30
2018-03-14T07:23:51.266Z,9.00
2018-03-14T07:24:51.276Z,9.10
2018-03-14T07:25:51.277Z,9.80
2018-03-14T07:26:51.286Z,9.00
2018-03-14T07:27:51.304Z,9.40
2018-03-14T07:28:51.284Z,10.00
2018-03-14T07:29:51.291Z,9.70
2018-03-14T07:30:51.290Z,10.00
2018-03-14T07:31:51.359Z,9.60
2018-03-14T07:32:51.302Z,9.80
2018-03-14T07:33:51.300Z,10.30
2018-03-14T07:34:51.309Z,9.70
2018-03-14T07:35:51.319Z,9.80
2018-03-14T07:36:51.314Z,9.70
2018-03-14T07:37:51.369Z,9.50
2018-03-14T07:38:51.324Z,9.70
2018-03-14T07:39:51.341Z,11.40
2018-03-14T07:40:51.333Z,11.60
2018-03-14T07:41:52.343Z,10.60
2018-03-14T07:42:51.387Z,10.20
2018-03-14T07:43:51.353Z,10.60
2018-03-14T07:44:51.367Z,9.90
2018-03-14T07:45:51.378Z,10.10
2018-03-14T07:46:51.371Z,10.40
2018-03-14T07:47:51.366Z,10.50
2018-03-14T07:48:51.366Z,9.60
2018-03-14T07:49:51.408Z,10.40
2018-03-14T07:50:51.370Z,10.50
2018-03-14T07:51:51.379Z,10.70
2018-03-14T07:52:51.397Z,10.10
2018-03-14T07:53:51.388Z,11.00
2018-03-14T07:54:51.695Z,10.50
2018-03-14T07:55:51.410Z,10.10
2018-03-14T07:56:51.399Z,10.80
2018-03-14T07:57:51.404Z,9.70
2018-03-14T07:58:51.559Z,10.00
2018-03-14T07:59:51.411Z,9.80
2018-03-14T08:00:51.569Z,9.80
2018-03-14T08:01:51.417Z,9.70
2018-03-14T08:02:51.593Z,9.80
2018-03-14T08:03:51.429Z,9.90
2018-03-14T08:04:51.535Z,9.90
2018-03-14T08:05:51.439Z,10.90
2018-03-14T08:06:51.439Z,10.40
2018-03-14T08:07:51.621Z,10.10
2018-03-14T08:08:51.447Z,10.70
2018-03-14T08:09:51.528Z,10.00
2018-03-14T08:10:51.479Z,9.70
2018-03-14T08:11:52.567Z,9.30
2018-03-14T08:12:51.458Z,10.10
2018-03-14T08:13:51.670Z,10.10
2018-03-14T08:14:51.471Z,10.30
2018-03-14T08:15:51.579Z,10.00
2018-03-14T08:16:51.478Z,9.50
2018-03-14T08:17:52.611Z,9.90
2018-03-14T08:18:51.488Z,9.80
2018-03-14T08:19:51.610Z,9.80
2018-03-14T08:20:51.542Z,9.80
2018-03-14T08:21:51.618Z,9.90
2018-03-14T08:22:51.504Z,10.00
2018-03-14T08:23:51.624Z,9.80
2018-03-14T08:24:51.515Z,8.90
2018-03-14T08:25:51.644Z,9.10
2018-03-14T08:26:51.527Z,10.20
2018-03-14T08:27:56.255Z,9.10
2018-03-14T08:28:51.542Z,8.80
2018-03-14T08:29:51.664Z,10.00
2018-03-14T08:30:51.529Z,10.30
2018-03-14T08:31:51.677Z,9.50
2018-03-14T08:32:51.549Z,9.60
2018-03-14T08:33:51.549Z,9.70
2018-03-14T08:34:51.700Z,9.60
2018-03-14T08:35:51.556Z,8.50
2018-03-14T08:36:51.614Z,9.00
2018-03-14T08:37:51.601Z,9.60
2018-03-14T08:38:51.574Z,8.00
2018-03-14T08:39:51.569Z,8.40
2018-03-14T08:40:51.740Z,7.80
2018-03-14T08:41:51.731Z,7.80
2018-03-14T08:42:51.584Z,8.50
2018-03-14T08:43:51.656Z,8.90
2018-03-14T08:44:51.619Z,8.50
2018-03-14T08:45:51.668Z,9.30
2018-03-14T08:46:51.641Z,9.20
2018-03-14T08:47:51.694Z,7.50
2018-03-14T08:48:51.607Z,8.00
2018-03-14T08:49:51.695Z,8.50
2018-03-14T08:50:51.623Z,8.40
2018-03-14T08:51:51.712Z,7.90
2018-03-14T08:52:51.634Z,8.10
2018-03-14T08:53:51.634Z,8.70
2018-03-14T08:54:51.732Z,8.00
2018-03-14T08:55:51.639Z,8.40
2018-03-14T08:56:52.668Z,8.20
2018-03-14T08:57:51.664Z,7.10
2018-03-14T08:58:51.760Z,7.80
2018-03-14T08:59:51.658Z,7.00
2018-03-14T09:00:51.672Z,7.00
2018-03-14T09:01:51.664Z,6.60
2018-03-14T09:02:51.684Z,7.50
2018-03-14T09:03:51.677Z,6.90
2018-03-14T09:04:51.695Z,6.80
2018-03-14T09:05:51.688Z,6.70
2018-03-14T09:06:51.710Z,7.30
2018-03-14T09:07:51.718Z,7.40
2018-03-14T09:08:52.796Z,7.20
2018-03-14T09:09:51.740Z,7.30
2018-03-14T09:10:51.753Z,7.20
2018-03-14T09:11:51.716Z,7.20
2018-03-14T09:12:51.793Z,7.40
2018-03-14T09:13:51.723Z,7.00
2018-03-14T09:14:52.801Z,6.80
2018-03-14T09:15:51.740Z,7.30
2018-03-14T09:16:52.821Z,7.70
2018-03-14T09:17:51.741Z,7.30
2018-03-14T09:18:51.810Z,8.30
2018-03-14T09:19:51.742Z,7.40
2018-03-14T09:20:51.812Z,6.90
2018-03-14T09:21:51.751Z,7.70
2018-03-14T09:22:51.747Z,7.90
2018-03-14T09:23:51.763Z,7.70
2018-03-14T09:24:52.877Z,7.70
2018-03-14T09:25:51.775Z,6.60
2018-03-14T09:26:51.859Z,6.20
2018-03-14T09:27:51.792Z,6.40
2018-03-14T09:28:51.878Z,7.10
2018-03-14T09:29:51.791Z,6.30
2018-03-14T09:30:51.908Z,6.80
2018-03-14T09:31:51.824Z,6.80
2018-03-14T09:32:51.933Z,6.10
2018-03-14T09:33:51.815Z,6.30
2018-03-14T09:34:53.869Z,6.50
2018-03-14T09:35:51.844Z,6.60
2018-03-14T09:36:51.833Z,5.80
2018-03-14T09:37:51.941Z,5.60
2018-03-14T09:38:51.863Z,6.30
2018-03-14T09:39:51.939Z,6.10
2018-03-14T09:40:51.828Z,6.50
2018-03-14T09:41:52.918Z,6.40
2018-03-14T09:42:51.836Z,5.90
2018-03-14T09:43:51.865Z,5.20
2018-03-14T09:44:51.847Z,4.60
2018-03-14T09:45:51.890Z,4.20
2018-03-14T09:46:51.854Z,4.50
2018-03-14T09:47:51.895Z,4.60
2018-03-14T09:48:51.862Z,4.60
2018-03-14T09:49:51.908Z,4.70
2018-03-14T09:50:51.877Z,4.30
2018-03-14T09:51:51.880Z,3.60
2018-03-14T09:52:51.889Z,3.10
2018-03-14T09:53:51.948Z,3.10
2018-03-14T09:54:51.895Z,2.30
2018-03-14T09:55:51.948Z,2.50
2018-03-14T09:56:51.908Z,2.30
2018-03-14T09:57:51.966Z,2.50
2018-03-14T09:58:51.927Z,3.10
2018-03-14T09:59:52.000Z,3.10
2018-03-14T10:00:51.934Z,3.50
2018-03-14T10:01:51.933Z,3.20
2018-03-14T10:02:52.044Z,3.50
2018-03-14T10:03:51.948Z,3.00
2018-03-14T10:04:53.034Z,2.80
2018-03-14T10:05:51.933Z,3.00
2018-03-14T10:06:52.020Z,2.40
2018-03-14T10:07:51.954Z,1.60
2018-03-14T10:08:52.035Z,1.60
2018-03-14T10:09:51.959Z,2.30
2018-03-14T10:10:56.763Z,2.30
2018-03-14T10:11:51.970Z,2.60
2018-03-14T10:12:52.061Z,2.40
2018-03-14T10:13:51.980Z,1.40
2018-03-14T10:14:51.981Z,1.10
2018-03-14T10:15:53.010Z,1.50
2018-03-14T10:16:52.041Z,1.20
2018-03-14T10:17:52.094Z,1.40
2018-03-14T10:18:51.993Z,2.00
2018-03-14T10:19:52.106Z,1.40
2018-03-14T10:20:52.003Z,1.70
2018-03-14T10:21:53.046Z,1.50
2018-03-14T10:22:52.009Z,1.40
2018-03-14T10:23:52.139Z,1.60
2018-03-14T10:24:52.021Z,1.30
2018-03-14T10:25:53.109Z,1.50
2018-03-14T10:26:52.032Z,1.20
2018-03-14T10:27:53.080Z,1.30
2018-03-14T10:28:52.043Z,1.30
2018-03-14T10:29:52.074Z,1.40
2018-03-14T10:30:52.045Z,1.30
2018-03-14T10:31:52.088Z,1.20
2018-03-14T10:32:52.056Z,1.30
2018-03-14T10:33:52.099Z,1.60
2018-03-14T10:34:52.126Z,1.70
2018-03-14T10:35:52.069Z,2.10
2018-03-14T10:36:52.128Z,2.00
2018-03-14T10:37:52.082Z,2.00
2018-03-14T10:38:52.086Z,2.50
2018-03-14T10:39:52.091Z,2.40
2018-03-14T10:40:52.149Z,2.40
2018-03-14T10:41:52.160Z,2.00
2018-03-14T10:42:52.098Z,1.90
2018-03-14T10:43:52.172Z,2.20
2018-03-14T10:44:52.108Z,2.40
2018-03-14T10:45:52.113Z,2.00
2018-03-14T10:46:52.121Z,2.10
2018-03-14T10:47:52.192Z,1.90
2018-03-14T10:48:52.132Z,2.30
2018-03-14T10:49:52.215Z,2.00
2018-03-14T10:50:52.151Z,2.10
2018-03-14T10:51:52.156Z,2.20
2018-03-14T10:52:52.237Z,2.10
2018-03-14T10:53:52.152Z,2.10
2018-03-14T10:54:52.249Z,2.20
2018-03-14T10:55:52.188Z,1.90
2018-03-14T10:56:52.272Z,2.10
2018-03-14T10:57:52.175Z,2.20
2018-03-14T10:58:52.184Z,2.50
2018-03-14T10:59:52.206Z,2.80
2018-03-14T11:00:52.216Z,2.40
2018-03-14T11:01:52.193Z,2.80
2018-03-14T11:02:52.302Z,2.50
2018-03-14T11:03:52.217Z,2.30
2018-03-14T11:04:52.310Z,2.10
2018-03-14T11:05:52.222Z,2.10
2018-03-14T11:06:52.330Z,2.10
2018-03-14T11:07:52.234Z,2.10
2018-03-14T11:08:52.337Z,2.40
2018-03-14T11:09:52.243Z,2.00
2018-03-14T11:10:52.269Z,2.10
2018-03-14T11:11:52.239Z,2.30
2018-03-14T11:12:52.243Z,2.20
2018-03-14T11:13:52.258Z,2.40
2018-03-14T11:14:52.258Z,2.40
2018-03-14T11:15:52.265Z,2.60
2018-03-14T11:16:52.265Z,2.80
2018-03-14T11:17:52.270Z,2.40
2018-03-14T11:18:52.277Z,2.40
2018-03-14T11:19:52.278Z,2.30
2018-03-14T11:20:52.285Z,2.40
2018-03-14T11:21:52.288Z,2.70
2018-03-14T11:22:52.297Z,2.70
2018-03-14T11:23:52.304Z,2.40
2018-03-14T11:24:52.309Z,2.40
2018-03-14T11:25:52.313Z,2.20
2018-03-14T11:26:52.321Z,2.70
2018-03-14T11:27:52.322Z,2.60
2018-03-14T11:28:52.376Z,2.80
2018-03-14T11:29:52.331Z,2.20
2018-03-14T11:30:52.336Z,2.60
2018-03-14T11:31:52.412Z,3.10
2018-03-14T11:32:52.339Z,2.40
2018-03-14T11:33:52.427Z,3.00
2018-03-14T11:34:52.351Z,2.40
2018-03-14T11:35:52.421Z,2.60
2018-03-14T11:36:52.361Z,2.50
2018-03-14T11:37:52.435Z,2.60
2018-03-14T11:38:52.373Z,2.50
2018-03-14T11:39:52.461Z,2.70
2018-03-14T11:40:52.389Z,2.60
2018-03-14T11:41:52.389Z,2.90
2018-03-14T11:42:52.393Z,3.00
2018-03-14T11:43:52.400Z,2.70
2018-03-14T11:44:52.481Z,2.60
2018-03-14T11:45:52.464Z,2.60
2018-03-14T11:46:52.510Z,2.80
2018-03-14T11:47:52.422Z,2.80
2018-03-14T11:48:52.514Z,2.70
2018-03-14T11:49:52.429Z,2.60
2018-03-14T11:50:52.526Z,2.70
2018-03-14T11:51:52.440Z,2.70
2018-03-14T11:52:52.541Z,2.50
2018-03-14T11:53:52.452Z,2.20
2018-03-14T11:54:52.558Z,2.50
2018-03-14T11:55:52.462Z,2.50
2018-03-14T11:56:52.570Z,3.10
2018-03-14T11:57:52.471Z,2.40
2018-03-14T11:58:52.483Z,2.40
2018-03-14T11:59:52.490Z,2.20
2018-03-14T12:00:52.491Z,2.40
2018-03-14T12:01:52.503Z,2.40
2018-03-14T12:02:52.494Z,2.50
2018-03-14T12:03:52.500Z,2.60
2018-03-14T12:04:52.509Z,2.60
2018-03-14T12:05:52.513Z,2.70
2018-03-14T12:06:52.517Z,2.70
2018-03-14T12:07:52.523Z,2.50
2018-03-14T12:08:52.546Z,2.30
2018-03-14T12:09:52.528Z,2.60
2018-03-14T12:10:52.560Z,2.80
2018-03-14T12:11:52.548Z,2.40
2018-03-14T12:12:52.573Z,2.70
2018-03-14T12:13:52.552Z,2.70
2018-03-14T12:14:53.614Z,2.60
2018-03-14T12:15:52.567Z,2.40
2018-03-14T12:16:52.567Z,2.70
2018-03-14T12:17:52.606Z,2.70
2018-03-14T12:18:52.592Z,2.70
2018-03-14T12:19:52.658Z,2.60
2018-03-14T12:20:52.636Z,2.70
2018-03-14T12:21:52.646Z,2.70
2018-03-14T12:22:52.606Z,2.50
2018-03-14T12:23:52.653Z,2.60
2018-03-14T12:24:52.616Z,2.50
2018-03-14T12:25:52.660Z,3.00
2018-03-14T12:26:52.634Z,3.00
2018-03-14T12:27:52.682Z,2.80
2018-03-14T12:28:52.632Z,3.10
2018-03-14T12:29:52.642Z,2.70
2018-03-14T12:30:54.745Z,2.60
2018-03-14T12:31:52.650Z,2.60
2018-03-14T12:32:52.708Z,2.70
2018-03-14T12:33:52.657Z,2.80
2018-03-14T12:34:52.664Z,2.70
2018-03-14T12:35:53.750Z,2.60
2018-03-14T12:36:52.677Z,2.60
2018-03-14T12:37:53.766Z,2.90
2018-03-14T12:38:52.686Z,2.90
2018-03-14T12:39:52.760Z,2.90
2018-03-14T12:40:52.694Z,2.60
2018-03-14T12:41:53.794Z,2.50
2018-03-14T12:42:52.706Z,2.60
2018-03-14T12:43:52.784Z,2.50
2018-03-14T12:44:52.735Z,2.40
2018-03-14T12:45:53.845Z,3.10
2018-03-14T12:46:52.733Z,2.80
2018-03-14T12:47:52.815Z,3.00
2018-03-14T12:48:52.745Z,2.30
2018-03-14T12:49:52.822Z,2.50
2018-03-14T12:50:52.756Z,2.70
2018-03-14T12:51:52.775Z,2.60
2018-03-14T12:52:52.846Z,2.40
2018-03-14T12:53:52.769Z,2.90
2018-03-14T12:54:52.858Z,3.00
2018-03-14T12:55:52.805Z,2.90
2018-03-14T12:56:52.889Z,2.70
2018-03-14T12:57:52.789Z,2.50
2018-03-14T12:58:52.882Z,2.80
2018-03-14T12:59:52.799Z,2.30
2018-03-14T13:00:52.898Z,2.90
2018-03-14T13:01:52.810Z,2.50
2018-03-14T13:02:52.914Z,2.60
2018-03-14T13:03:52.821Z,2.70
2018-03-14T13:04:52.930Z,2.50
2018-03-14T13:05:52.837Z,2.80
2018-03-14T13:06:53.868Z,2.70
2018-03-14T13:07:52.843Z,2.70
2018-03-14T13:08:52.966Z,2.80
2018-03-14T13:09:52.860Z,3.00
2018-03-14T13:10:53.899Z,3.00
2018-03-14T13:11:52.873Z,3.00
2018-03-14T13:12:52.992Z,3.00
2018-03-14T13:13:52.891Z,3.20
2018-03-14T13:14:52.995Z,2.70
2018-03-14T13:15:52.893Z,2.80
2018-03-14T13:16:53.014Z,2.80
2018-03-14T13:17:52.912Z,2.90
2018-03-14T13:18:53.946Z,2.90
2018-03-14T13:19:52.917Z,2.80
2018-03-14T13:20:53.112Z,2.60
2018-03-14T13:21:52.930Z,2.80